sensor_id;sensor_type;location;lat;lon;timestamp;pressure;altitude;pressure_sealevel;temperature;humidity
51759;BME280;66684;47.568;18.734;2024-02-14T00:01:04;99962.16;;;2.93;100.00
51759;BME280;66684;47.568;18.734;2024-02-14T00:03:33;99960.78;;;2.86;100.00
51759;BME280;66684;47.568;18.734;2024-02-14T00:05:59;99965.16;;;2.99;100.00
51759;BME280;66684;47.568;18.734;2024-02-14T00:08:24;99966.81;;;2.98;100.00
51759;BME280;66684;47.568;18.734;2024-02-14T00:10:51;99969.28;;;2.97;100.00
51759;BME280;66684;47.568;18.734;2024-02-14T00:13:17;99978.34;;;2.93;100.00
51759;BME280;66684;47.568;18.734;2024-02-14T00:15:45;99980.31;;;2.86;100.00
51759;BME280;66684;47.568;18.734;2024-02-14T00:18:12;99981.88;;;2.84;100.00
51759;BME280;66684;47.568;18.734;2024-02-14T00:20:38;99973.91;;;2.91;100.00
51759;BME280;66684;47.568;18.734;2024-02-14T00:23:05;99979.84;;;2.80;100.00
51759;BME280;66684;47.568;18.734;2024-02-14T00:25:30;99989.09;;;2.67;100.00
51759;BME280;66684;47.568;18.734;2024-02-14T00:27:56;99987.44;;;2.46;100.00
51759;BME280;66684;47.568;18.734;2024-02-14T00:30:23;99988.47;;;2.38;100.00
51759;BME280;66684;47.568;18.734;2024-02-14T00:32:50;99991.25;;;2.19;100.00
51759;BME280;66684;47.568;18.734;2024-02-14T00:35:15;99989.38;;;2.06;100.00
51759;BME280;66684;47.568;18.734;2024-02-14T00:37:41;99990.72;;;1.91;100.00
51759;BME280;66684;47.568;18.734;2024-02-14T00:40:08;99991.88;;;1.84;100.00
51759;BME280;66684;47.568;18.734;2024-02-14T00:42:34;99996.59;;;1.90;100.00
51759;BME280;66684;47.568;18.734;2024-02-14T00:45:00;99998.03;;;1.76;100.00
51759;BME280;66684;47.568;18.734;2024-02-14T00:47:26;100004.62;;;1.84;100.00
51759;BME280;66684;47.568;18.734;2024-02-14T00:49:51;100007.88;;;1.94;100.00
51759;BME280;66684;47.568;18.734;2024-02-14T00:52:17;100005.50;;;1.95;100.00
51759;BME280;66684;47.568;18.734;2024-02-14T00:54:43;100002.94;;;1.95;100.00
51759;BME280;66684;47.568;18.734;2024-02-14T00:57:09;99999.34;;;2.03;100.00
51759;BME280;66684;47.568;18.734;2024-02-14T00:59:35;100003.94;;;1.97;100.00
51759;BME280;66684;47.568;18.734;2024-02-14T01:02:01;100001.69;;;1.90;100.00
51759;BME280;66684;47.568;18.734;2024-02-14T01:04:27;100004.72;;;1.86;100.00
51759;BME280;66684;47.568;18.734;2024-02-14T01:06:53;100003.47;;;1.81;100.00
51759;BME280;66684;47.568;18.734;2024-02-14T01:09:19;99997.38;;;1.79;100.00
51759;BME280;66684;47.568;18.734;2024-02-14T01:11:45;100000.41;;;1.75;100.00
51759;BME280;66684;47.568;18.734;2024-02-14T01:14:11;99996.88;;;1.73;100.00
51759;BME280;66684;47.568;18.734;2024-02-14T01:16:43;99997.25;;;1.67;100.00
51759;BME280;66684;47.568;18.734;2024-02-14T01:19:10;100000.44;;;1.65;100.00
51759;BME280;66684;47.568;18.734;2024-02-14T01:21:36;99999.72;;;1.45;100.00
51759;BME280;66684;47.568;18.734;2024-02-14T01:24:02;100000.84;;;1.28;100.00
51759;BME280;66684;47.568;18.734;2024-02-14T01:26:28;99994.88;;;1.28;100.00
51759;BME280;66684;47.568;18.734;2024-02-14T01:28:54;99995.38;;;1.24;100.00
51759;BME280;66684;47.568;18.734;2024-02-14T01:31:19;99996.53;;;1.07;100.00
51759;BME280;66684;47.568;18.734;2024-02-14T01:33:46;99996.03;;;1.01;100.00
51759;BME280;66684;47.568;18.734;2024-02-14T01:36:12;100000.44;;;0.93;100.00
51759;BME280;66684;47.568;18.734;2024-02-14T01:38:38;100006.91;;;0.79;100.00
51759;BME280;66684;47.568;18.734;2024-02-14T01:41:04;99995.19;;;0.71;100.00
51759;BME280;66684;47.568;18.734;2024-02-14T01:43:31;100002.06;;;0.72;100.00
51759;BME280;66684;47.568;18.734;2024-02-14T01:46:05;99996.69;;;0.59;100.00
51759;BME280;66684;47.568;18.734;2024-02-14T01:48:31;100000.78;;;0.67;100.00
51759;BME280;66684;47.568;18.734;2024-02-14T01:50:58;100001.28;;;0.73;100.00
51759;BME280;66684;47.568;18.734;2024-02-14T01:53:25;99999.13;;;0.68;100.00
51759;BME280;66684;47.568;18.734;2024-02-14T01:55:52;99996.41;;;0.56;100.00
51759;BME280;66684;47.568;18.734;2024-02-14T01:58:18;100006.87;;;0.59;100.00
51759;BME280;66684;47.568;18.734;2024-02-14T02:00:44;100002.25;;;0.55;100.00
51759;BME280;66684;47.568;18.734;2024-02-14T02:03:12;100002.16;;;0.53;100.00
51759;BME280;66684;47.568;18.734;2024-02-14T02:05:39;100000.91;;;0.59;100.00
51759;BME280;66684;47.568;18.734;2024-02-14T02:08:07;100001.66;;;0.68;100.00
51759;BME280;66684;47.568;18.734;2024-02-14T02:10:34;100011.94;;;0.59;100.00
51759;BME280;66684;47.568;18.734;2024-02-14T02:13:00;100009.19;;;0.37;100.00
51759;BME280;66684;47.568;18.734;2024-02-14T02:15:26;100011.47;;;0.34;100.00
51759;BME280;66684;47.568;18.734;2024-02-14T02:17:54;100009.94;;;0.26;100.00
51759;BME280;66684;47.568;18.734;2024-02-14T02:20:20;100010.41;;;0.22;100.00
51759;BME280;66684;47.568;18.734;2024-02-14T02:22:47;100010.81;;;0.26;100.00
51759;BME280;66684;47.568;18.734;2024-02-14T02:25:15;100010.41;;;0.22;100.00
51759;BME280;66684;47.568;18.734;2024-02-14T02:27:41;100009.81;;;0.06;100.00
51759;BME280;66684;47.568;18.734;2024-02-14T02:30:07;100018.19;;;0.05;100.00
51759;BME280;66684;47.568;18.734;2024-02-14T02:32:36;100007.25;;;-0.05;100.00
51759;BME280;66684;47.568;18.734;2024-02-14T02:35:02;100004.09;;;-0.21;100.00
51759;BME280;66684;47.568;18.734;2024-02-14T02:37:28;100016.37;;;-0.25;100.00
51759;BME280;66684;47.568;18.734;2024-02-14T02:39:56;100016.47;;;-0.34;100.00
51759;BME280;66684;47.568;18.734;2024-02-14T02:42:22;100013.84;;;-0.44;100.00
51759;BME280;66684;47.568;18.734;2024-02-14T02:44:50;100022.50;;;-0.42;100.00
51759;BME280;66684;47.568;18.734;2024-02-14T02:47:16;100013.69;;;-0.27;100.00
51759;BME280;66684;47.568;18.734;2024-02-14T02:49:44;100020.31;;;-0.29;100.00
51759;BME280;66684;47.568;18.734;2024-02-14T02:52:11;100015.34;;;-0.46;100.00
51759;BME280;66684;47.568;18.734;2024-02-14T02:54:38;100010.41;;;-0.26;100.00
51759;BME280;66684;47.568;18.734;2024-02-14T02:57:10;100012.75;;;-0.19;100.00
51759;BME280;66684;47.568;18.734;2024-02-14T02:59:36;100014.25;;;-0.21;100.00
51759;BME280;66684;47.568;18.734;2024-02-14T03:02:03;100020.72;;;-0.06;100.00
51759;BME280;66684;47.568;18.734;2024-02-14T03:04:29;100029.88;;;0.03;100.00
51759;BME280;66684;47.568;18.734;2024-02-14T03:06:57;100028.25;;;0.03;100.00
51759;BME280;66684;47.568;18.734;2024-02-14T03:09:24;100025.50;;;-0.09;100.00
51759;BME280;66684;47.568;18.734;2024-02-14T03:11:53;100031.34;;;-0.10;100.00
51759;BME280;66684;47.568;18.734;2024-02-14T03:14:19;100034.09;;;0.02;100.00
51759;BME280;66684;47.568;18.734;2024-02-14T03:16:45;100038.19;;;0.10;100.00
51759;BME280;66684;47.568;18.734;2024-02-14T03:19:11;100037.28;;;0.10;100.00
51759;BME280;66684;47.568;18.734;2024-02-14T03:21:37;100038.31;;;0.12;100.00
51759;BME280;66684;47.568;18.734;2024-02-14T03:24:03;100035.22;;;0.06;100.00
51759;BME280;66684;47.568;18.734;2024-02-14T03:26:31;100043.16;;;0.19;100.00
51759;BME280;66684;47.568;18.734;2024-02-14T03:29:00;100046.66;;;0.30;100.00
51759;BME280;66684;47.568;18.734;2024-02-14T03:31:26;100047.53;;;0.30;100.00
51759;BME280;66684;47.568;18.734;2024-02-14T03:33:52;100050.59;;;0.26;100.00
51759;BME280;66684;47.568;18.734;2024-02-14T03:36:19;100048.09;;;0.36;100.00
51759;BME280;66684;47.568;18.734;2024-02-14T03:38:45;100044.66;;;0.36;100.00
51759;BME280;66684;47.568;18.734;2024-02-14T03:41:12;100050.16;;;0.40;100.00
51759;BME280;66684;47.568;18.734;2024-02-14T03:43:39;100058.00;;;0.33;100.00
51759;BME280;66684;47.568;18.734;2024-02-14T03:46:04;100051.66;;;0.38;100.00
51759;BME280;66684;47.568;18.734;2024-02-14T03:48:33;100055.22;;;0.40;100.00
51759;BME280;66684;47.568;18.734;2024-02-14T03:51:00;100048.59;;;0.32;100.00
51759;BME280;66684;47.568;18.734;2024-02-14T03:53:26;100056.63;;;0.18;100.00
51759;BME280;66684;47.568;18.734;2024-02-14T03:55:51;100061.13;;;0.31;100.00
51759;BME280;66684;47.568;18.734;2024-02-14T03:58:19;100060.66;;;0.35;100.00
51759;BME280;66684;47.568;18.734;2024-02-14T04:00:50;100067.66;;;0.37;100.00
51759;BME280;66684;47.568;18.734;2024-02-14T04:03:16;100067.87;;;0.30;100.00
51759;BME280;66684;47.568;18.734;2024-02-14T04:05:42;100069.12;;;0.25;100.00
51759;BME280;66684;47.568;18.734;2024-02-14T04:08:08;100078.81;;;0.10;100.00
51759;BME280;66684;47.568;18.734;2024-02-14T04:10:39;100076.56;;;0.13;100.00
51759;BME280;66684;47.568;18.734;2024-02-14T04:13:05;100079.25;;;0.15;100.00
51759;BME280;66684;47.568;18.734;2024-02-14T04:15:32;100088.66;;;0.16;100.00
51759;BME280;66684;47.568;18.734;2024-02-14T04:17:58;100095.38;;;-0.04;100.00
51759;BME280;66684;47.568;18.734;2024-02-14T04:20:25;100103.34;;;0.10;100.00
51759;BME280;66684;47.568;18.734;2024-02-14T04:22:51;100101.91;;;0.22;100.00
51759;BME280;66684;47.568;18.734;2024-02-14T04:25:17;100108.97;;;0.16;100.00
51759;BME280;66684;47.568;18.734;2024-02-14T04:27:44;100110.06;;;0.28;100.00
51759;BME280;66684;47.568;18.734;2024-02-14T04:30:10;100119.00;;;0.33;100.00
51759;BME280;66684;47.568;18.734;2024-02-14T04:32:36;100122.47;;;0.25;100.00
51759;BME280;66684;47.568;18.734;2024-02-14T04:35:03;100119.69;;;0.22;100.00
51759;BME280;66684;47.568;18.734;2024-02-14T04:37:29;100123.00;;;0.21;100.00
51759;BME280;66684;47.568;18.734;2024-02-14T04:39:55;100118.47;;;0.08;100.00
51759;BME280;66684;47.568;18.734;2024-02-14T04:42:21;100121.25;;;-0.27;100.00
51759;BME280;66684;47.568;18.734;2024-02-14T04:44:47;100119.56;;;-0.45;100.00
51759;BME280;66684;47.568;18.734;2024-02-14T04:47:12;100127.03;;;-0.46;100.00
51759;BME280;66684;47.568;18.734;2024-02-14T04:49:38;100130.34;;;-0.47;100.00
51759;BME280;66684;47.568;18.734;2024-02-14T04:52:04;100120.69;;;-0.33;100.00
51759;BME280;66684;47.568;18.734;2024-02-14T04:54:30;100132.28;;;-0.26;100.00
51759;BME280;66684;47.568;18.734;2024-02-14T04:56:56;100133.53;;;-0.31;100.00
51759;BME280;66684;47.568;18.734;2024-02-14T04:59:22;100136.69;;;-0.15;100.00
51759;BME280;66684;47.568;18.734;2024-02-14T05:01:48;100140.00;;;-0.16;100.00
51759;BME280;66684;47.568;18.734;2024-02-14T05:04:14;100142.06;;;-0.12;100.00
51759;BME280;66684;47.568;18.734;2024-02-14T05:06:39;100144.63;;;-0.12;100.00
51759;BME280;66684;47.568;18.734;2024-02-14T05:09:05;100139.44;;;-0.22;100.00
51759;BME280;66684;47.568;18.734;2024-02-14T05:11:31;100147.53;;;-0.26;100.00
51759;BME280;66684;47.568;18.734;2024-02-14T05:13:57;100148.47;;;-0.34;100.00
51759;BME280;66684;47.568;18.734;2024-02-14T05:16:23;100146.69;;;-0.35;100.00
51759;BME280;66684;47.568;18.734;2024-02-14T05:18:49;100153.88;;;-0.40;100.00
51759;BME280;66684;47.568;18.734;2024-02-14T05:21:15;100151.47;;;-0.38;100.00
51759;BME280;66684;47.568;18.734;2024-02-14T05:23:42;100148.81;;;-0.76;100.00
51759;BME280;66684;47.568;18.734;2024-02-14T05:26:08;100154.78;;;-0.67;100.00
51759;BME280;66684;47.568;18.734;2024-02-14T05:28:34;100157.56;;;-0.64;100.00
51759;BME280;66684;47.568;18.734;2024-02-14T05:31:00;100158.13;;;-0.49;100.00
51759;BME280;66684;47.568;18.734;2024-02-14T05:33:26;100165.38;;;-0.71;100.00
51759;BME280;66684;47.568;18.734;2024-02-14T05:35:52;100163.63;;;-0.80;100.00
51759;BME280;66684;47.568;18.734;2024-02-14T05:38:18;100161.25;;;-0.79;100.00
51759;BME280;66684;47.568;18.734;2024-02-14T05:40:50;100149.25;;;-0.71;100.00
51759;BME280;66684;47.568;18.734;2024-02-14T05:43:16;100167.53;;;-0.84;100.00
51759;BME280;66684;47.568;18.734;2024-02-14T05:45:44;100162.78;;;-0.98;100.00
51759;BME280;66684;47.568;18.734;2024-02-14T05:48:09;100160.53;;;-0.95;100.00
51759;BME280;66684;47.568;18.734;2024-02-14T05:50:35;100158.94;;;-1.03;100.00
51759;BME280;66684;47.568;18.734;2024-02-14T05:53:03;100170.62;;;-1.23;100.00
51759;BME280;66684;47.568;18.734;2024-02-14T05:55:29;100168.09;;;-1.31;100.00
51759;BME280;66684;47.568;18.734;2024-02-14T05:57:55;100178.12;;;-1.50;100.00
51759;BME280;66684;47.568;18.734;2024-02-14T06:00:23;100181.34;;;-1.34;100.00
51759;BME280;66684;47.568;18.734;2024-02-14T06:02:49;100176.13;;;-1.18;100.00
51759;BME280;66684;47.568;18.734;2024-02-14T06:05:15;100170.59;;;-1.05;100.00
51759;BME280;66684;47.568;18.734;2024-02-14T06:07:41;100175.75;;;-0.95;100.00
51759;BME280;66684;47.568;18.734;2024-02-14T06:10:08;100170.50;;;-0.88;100.00
51759;BME280;66684;47.568;18.734;2024-02-14T06:12:34;100174.19;;;-0.76;100.00
51759;BME280;66684;47.568;18.734;2024-02-14T06:15:01;100174.88;;;-0.60;100.00
51759;BME280;66684;47.568;18.734;2024-02-14T06:17:27;100174.50;;;-0.37;100.00
51759;BME280;66684;47.568;18.734;2024-02-14T06:19:53;100182.56;;;0.06;100.00
51759;BME280;66684;47.568;18.734;2024-02-14T06:22:19;100182.75;;;0.45;100.00
51759;BME280;66684;47.568;18.734;2024-02-14T06:24:48;100179.25;;;0.82;100.00
51759;BME280;66684;47.568;18.734;2024-02-14T06:27:14;100192.84;;;1.01;100.00
51759;BME280;66684;47.568;18.734;2024-02-14T06:29:43;100199.94;;;1.05;100.00
51759;BME280;66684;47.568;18.734;2024-02-14T06:32:12;100211.50;;;0.54;100.00
51759;BME280;66684;47.568;18.734;2024-02-14T06:34:38;100218.06;;;-0.32;100.00
51759;BME280;66684;47.568;18.734;2024-02-14T06:37:04;100209.47;;;-0.51;100.00
51759;BME280;66684;47.568;18.734;2024-02-14T06:39:30;100207.50;;;-0.45;100.00
51759;BME280;66684;47.568;18.734;2024-02-14T06:41:56;100219.56;;;-0.34;100.00
51759;BME280;66684;47.568;18.734;2024-02-14T06:44:25;100226.03;;;-0.46;100.00
51759;BME280;66684;47.568;18.734;2024-02-14T06:46:51;100221.72;;;-0.47;100.00
51759;BME280;66684;47.568;18.734;2024-02-14T06:49:17;100223.47;;;-0.38;100.00
51759;BME280;66684;47.568;18.734;2024-02-14T06:51:43;100233.47;;;-0.39;100.00
51759;BME280;66684;47.568;18.734;2024-02-14T06:54:09;100236.06;;;-0.20;100.00
51759;BME280;66684;47.568;18.734;2024-02-14T06:56:38;100235.41;;;-0.09;100.00
51759;BME280;66684;47.568;18.734;2024-02-14T06:59:04;100235.28;;;-0.11;100.00
51759;BME280;66684;47.568;18.734;2024-02-14T07:01:30;100240.69;;;0.11;100.00
51759;BME280;66684;47.568;18.734;2024-02-14T07:03:57;100246.84;;;0.05;100.00
51759;BME280;66684;47.568;18.734;2024-02-14T07:06:23;100245.94;;;0.13;100.00
51759;BME280;66684;47.568;18.734;2024-02-14T07:08:49;100247.22;;;0.18;100.00
51759;BME280;66684;47.568;18.734;2024-02-14T07:11:16;100258.25;;;0.18;100.00
51759;BME280;66684;47.568;18.734;2024-02-14T07:13:42;100255.19;;;0.31;100.00
51759;BME280;66684;47.568;18.734;2024-02-14T07:16:08;100251.44;;;0.36;100.00
51759;BME280;66684;47.568;18.734;2024-02-14T07:18:34;100245.97;;;0.50;100.00
51759;BME280;66684;47.568;18.734;2024-02-14T07:21:00;100243.00;;;0.65;100.00
51759;BME280;66684;47.568;18.734;2024-02-14T07:23:27;100246.56;;;0.67;100.00
51759;BME280;66684;47.568;18.734;2024-02-14T07:25:53;100248.66;;;0.81;100.00
51759;BME280;66684;47.568;18.734;2024-02-14T07:28:19;100248.50;;;0.88;100.00
51759;BME280;66684;47.568;18.734;2024-02-14T07:30:45;100251.59;;;1.04;100.00
51759;BME280;66684;47.568;18.734;2024-02-14T07:33:11;100256.44;;;1.01;100.00
51759;BME280;66684;47.568;18.734;2024-02-14T07:35:37;100250.84;;;1.05;100.00
51759;BME280;66684;47.568;18.734;2024-02-14T07:38:03;100253.69;;;1.19;100.00
51759;BME280;66684;47.568;18.734;2024-02-14T07:40:28;100253.09;;;1.21;100.00
51759;BME280;66684;47.568;18.734;2024-02-14T07:42:57;100248.62;;;1.19;100.00
51759;BME280;66684;47.568;18.734;2024-02-14T07:45:23;100256.06;;;1.26;100.00
51759;BME280;66684;47.568;18.734;2024-02-14T07:47:49;100258.13;;;1.40;100.00
51759;BME280;66684;47.568;18.734;2024-02-14T07:50:15;100254.72;;;1.50;100.00
51759;BME280;66684;47.568;18.734;2024-02-14T07:52:42;100262.41;;;1.60;100.00
51759;BME280;66684;47.568;18.734;2024-02-14T07:55:09;100263.94;;;1.68;100.00
51759;BME280;66684;47.568;18.734;2024-02-14T07:57:39;100264.22;;;1.81;100.00
51759;BME280;66684;47.568;18.734;2024-02-14T08:00:06;100275.63;;;1.95;100.00
51759;BME280;66684;47.568;18.734;2024-02-14T08:02:34;100271.78;;;2.10;100.00
51759;BME280;66684;47.568;18.734;2024-02-14T08:05:00;100267.22;;;2.16;100.00
51759;BME280;66684;47.568;18.734;2024-02-14T08:07:26;100269.38;;;2.32;100.00
51759;BME280;66684;47.568;18.734;2024-02-14T08:09:54;100268.25;;;2.39;100.00
51759;BME280;66684;47.568;18.734;2024-02-14T08:12:20;100269.12;;;2.29;100.00
51759;BME280;66684;47.568;18.734;2024-02-14T08:14:46;100278.81;;;2.23;100.00
51759;BME280;66684;47.568;18.734;2024-02-14T08:17:13;100280.75;;;2.36;100.00
51759;BME280;66684;47.568;18.734;2024-02-14T08:19:39;100276.91;;;2.31;100.00
51759;BME280;66684;47.568;18.734;2024-02-14T08:22:05;100274.97;;;2.38;100.00
51759;BME280;66684;47.568;18.734;2024-02-14T08:24:32;100281.25;;;2.42;100.00
51759;BME280;66684;47.568;18.734;2024-02-14T08:26:58;100284.31;;;2.58;100.00
51759;BME280;66684;47.568;18.734;2024-02-14T08:29:24;100285.06;;;2.78;100.00
51759;BME280;66684;47.568;18.734;2024-02-14T08:31:50;100290.12;;;2.88;100.00
51759;BME280;66684;47.568;18.734;2024-02-14T08:34:16;100294.34;;;2.87;100.00
51759;BME280;66684;47.568;18.734;2024-02-14T08:36:42;100287.06;;;2.92;100.00
51759;BME280;66684;47.568;18.734;2024-02-14T08:39:08;100287.56;;;3.08;100.00
51759;BME280;66684;47.568;18.734;2024-02-14T08:41:39;100293.91;;;3.13;100.00
51759;BME280;66684;47.568;18.734;2024-02-14T08:44:07;100288.16;;;3.16;100.00
51759;BME280;66684;47.568;18.734;2024-02-14T08:46:33;100285.97;;;3.20;100.00
51759;BME280;66684;47.568;18.734;2024-02-14T08:49:02;100285.44;;;3.24;100.00
51759;BME280;66684;47.568;18.734;2024-02-14T08:51:28;100289.25;;;3.40;100.00
51759;BME280;66684;47.568;18.734;2024-02-14T08:53:54;100280.00;;;3.52;100.00
51759;BME280;66684;47.568;18.734;2024-02-14T08:56:22;100281.22;;;3.57;100.00
51759;BME280;66684;47.568;18.734;2024-02-14T08:58:49;100282.31;;;3.71;100.00
51759;BME280;66684;47.568;18.734;2024-02-14T09:01:15;100284.81;;;3.81;100.00
51759;BME280;66684;47.568;18.734;2024-02-14T09:03:44;100282.84;;;3.89;100.00
51759;BME280;66684;47.568;18.734;2024-02-14T09:06:16;100289.16;;;4.04;100.00
51759;BME280;66684;47.568;18.734;2024-02-14T09:08:43;100286.59;;;4.04;100.00
51759;BME280;66684;47.568;18.734;2024-02-14T09:11:10;100283.44;;;4.18;100.00
51759;BME280;66684;47.568;18.734;2024-02-14T09:13:36;100281.28;;;4.35;100.00
51759;BME280;66684;47.568;18.734;2024-02-14T09:16:02;100274.94;;;4.41;100.00
51759;BME280;66684;47.568;18.734;2024-02-14T09:18:28;100280.84;;;4.52;100.00
51759;BME280;66684;47.568;18.734;2024-02-14T09:20:54;100283.56;;;4.53;100.00
51759;BME280;66684;47.568;18.734;2024-02-14T09:23:22;100274.66;;;4.60;100.00
51759;BME280;66684;47.568;18.734;2024-02-14T09:25:49;100280.69;;;4.72;100.00
51759;BME280;66684;47.568;18.734;2024-02-14T09:28:16;100278.25;;;4.85;100.00
51759;BME280;66684;47.568;18.734;2024-02-14T09:30:41;100279.34;;;4.89;100.00
51759;BME280;66684;47.568;18.734;2024-02-14T09:33:07;100281.37;;;5.05;100.00
51759;BME280;66684;47.568;18.734;2024-02-14T09:35:34;100278.72;;;5.03;100.00
51759;BME280;66684;47.568;18.734;2024-02-14T09:38:04;100279.38;;;5.01;100.00
51759;BME280;66684;47.568;18.734;2024-02-14T09:40:30;100277.94;;;5.16;100.00
51759;BME280;66684;47.568;18.734;2024-02-14T09:42:56;100278.25;;;5.32;100.00
51759;BME280;66684;47.568;18.734;2024-02-14T09:45:25;100281.25;;;5.38;100.00
51759;BME280;66684;47.568;18.734;2024-02-14T09:47:52;100284.25;;;5.56;100.00
51759;BME280;66684;47.568;18.734;2024-02-14T09:50:19;100276.88;;;5.73;100.00
51759;BME280;66684;47.568;18.734;2024-02-14T09:52:49;100287.56;;;5.67;100.00
51759;BME280;66684;47.568;18.734;2024-02-14T09:55:15;100285.00;;;5.67;100.00
51759;BME280;66684;47.568;18.734;2024-02-14T09:57:43;100278.19;;;5.79;100.00
51759;BME280;66684;47.568;18.734;2024-02-14T10:00:10;100273.50;;;5.74;100.00
51759;BME280;66684;47.568;18.734;2024-02-14T10:02:36;100275.31;;;5.51;100.00
51759;BME280;66684;47.568;18.734;2024-02-14T10:05:03;100272.38;;;5.70;100.00
51759;BME280;66684;47.568;18.734;2024-02-14T10:07:28;100267.47;;;5.85;100.00
51759;BME280;66684;47.568;18.734;2024-02-14T10:09:54;100260.81;;;6.12;100.00
51759;BME280;66684;47.568;18.734;2024-02-14T10:12:31;100264.03;;;6.34;100.00
51759;BME280;66684;47.568;18.734;2024-02-14T10:14:57;100261.69;;;6.37;100.00
51759;BME280;66684;47.568;18.734;2024-02-14T10:17:22;100249.84;;;6.39;100.00
51759;BME280;66684;47.568;18.734;2024-02-14T10:19:56;100250.47;;;6.48;98.49
51759;BME280;66684;47.568;18.734;2024-02-14T10:22:22;100249.47;;;6.60;100.00
51759;BME280;66684;47.568;18.734;2024-02-14T10:24:48;100243.41;;;6.97;100.00
51759;BME280;66684;47.568;18.734;2024-02-14T10:27:15;100237.25;;;7.35;100.00
51759;BME280;66684;47.568;18.734;2024-02-14T10:29:41;100238.81;;;7.46;96.51
51759;BME280;66684;47.568;18.734;2024-02-14T10:32:07;100241.59;;;7.49;94.81
51759;BME280;66684;47.568;18.734;2024-02-14T10:34:34;100235.84;;;7.53;93.55
51759;BME280;66684;47.568;18.734;2024-02-14T10:37:02;100235.44;;;7.47;88.21
51759;BME280;66684;47.568;18.734;2024-02-14T10:39:29;100236.06;;;7.43;88.22
51759;BME280;66684;47.568;18.734;2024-02-14T10:41:57;100236.34;;;7.48;90.15
51759;BME280;66684;47.568;18.734;2024-02-14T10:44:23;100223.78;;;7.52;88.13
51759;BME280;66684;47.568;18.734;2024-02-14T10:46:52;100223.37;;;7.60;85.02
51759;BME280;66684;47.568;18.734;2024-02-14T10:49:19;100215.44;;;7.70;85.23
51759;BME280;66684;47.568;18.734;2024-02-14T10:51:47;100221.56;;;7.72;83.43
51759;BME280;66684;47.568;18.734;2024-02-14T10:54:15;100212.44;;;7.77;82.46
51759;BME280;66684;47.568;18.734;2024-02-14T10:56:48;100212.09;;;7.85;81.10
51759;BME280;66684;47.568;18.734;2024-02-14T10:59:20;100219.72;;;7.84;83.31
51759;BME280;66684;47.568;18.734;2024-02-14T11:01:47;100214.53;;;7.97;82.34
51759;BME280;66684;47.568;18.734;2024-02-14T11:04:13;100205.53;;;7.76;79.54
51759;BME280;66684;47.568;18.734;2024-02-14T11:06:46;100202.87;;;7.74;77.78
51759;BME280;66684;47.568;18.734;2024-02-14T11:09:13;100195.03;;;8.01;76.62
51759;BME280;66684;47.568;18.734;2024-02-14T11:11:44;100196.09;;;8.04;79.47
51759;BME280;66684;47.568;18.734;2024-02-14T11:14:14;100192.31;;;8.13;76.07
51759;BME280;66684;47.568;18.734;2024-02-14T11:16:41;100188.50;;;8.21;76.86
51759;BME280;66684;47.568;18.734;2024-02-14T11:19:13;100187.16;;;8.27;75.54
51759;BME280;66684;47.568;18.734;2024-02-14T11:21:43;100177.66;;;8.26;71.68
51759;BME280;66684;47.568;18.734;2024-02-14T11:24:11;100180.03;;;8.36;72.02
51759;BME280;66684;47.568;18.734;2024-02-14T11:26:51;100169.59;;;8.35;72.38
51759;BME280;66684;47.568;18.734;2024-02-14T11:29:18;100172.91;;;8.47;71.86
51759;BME280;66684;47.568;18.734;2024-02-14T11:31:44;100169.41;;;8.32;70.67
51759;BME280;66684;47.568;18.734;2024-02-14T11:34:12;100162.37;;;8.43;69.28
51759;BME280;66684;47.568;18.734;2024-02-14T11:36:39;100171.38;;;8.65;70.76
51759;BME280;66684;47.568;18.734;2024-02-14T11:39:07;100162.47;;;8.90;69.36
51759;BME280;66684;47.568;18.734;2024-02-14T11:41:35;100160.19;;;8.65;69.16
51759;BME280;66684;47.568;18.734;2024-02-14T11:44:03;100158.41;;;8.79;67.77
51759;BME280;66684;47.568;18.734;2024-02-14T11:46:31;100157.84;;;8.99;67.78
51759;BME280;66684;47.568;18.734;2024-02-14T11:48:57;100152.09;;;9.05;66.31
51759;BME280;66684;47.568;18.734;2024-02-14T11:51:23;100160.41;;;8.99;66.41
51759;BME280;66684;47.568;18.734;2024-02-14T11:53:49;100165.16;;;8.77;68.13
51759;BME280;66684;47.568;18.734;2024-02-14T11:56:15;100163.94;;;8.70;66.09
51759;BME280;66684;47.568;18.734;2024-02-14T11:58:41;100157.88;;;8.70;66.21
51759;BME280;66684;47.568;18.734;2024-02-14T12:01:07;100144.69;;;8.80;67.23
51759;BME280;66684;47.568;18.734;2024-02-14T12:03:35;100158.94;;;8.73;65.23
51759;BME280;66684;47.568;18.734;2024-02-14T12:06:01;100155.00;;;8.95;67.26
51759;BME280;66684;47.568;18.734;2024-02-14T12:08:28;100153.03;;;9.05;68.57
51759;BME280;66684;47.568;18.734;2024-02-14T12:10:54;100149.66;;;9.06;67.50
51759;BME280;66684;47.568;18.734;2024-02-14T12:13:21;100150.19;;;9.01;65.86
51759;BME280;66684;47.568;18.734;2024-02-14T12:15:49;100148.22;;;9.11;66.06
51759;BME280;66684;47.568;18.734;2024-02-14T12:18:17;100158.84;;;8.72;67.88
51759;BME280;66684;47.568;18.734;2024-02-14T12:20:46;100151.19;;;8.73;66.56
51759;BME280;66684;47.568;18.734;2024-02-14T12:23:16;100146.31;;;8.78;68.17
51759;BME280;66684;47.568;18.734;2024-02-14T12:25:43;100150.84;;;8.82;67.82
51759;BME280;66684;47.568;18.734;2024-02-14T12:28:16;100150.66;;;8.79;69.32
51759;BME280;66684;47.568;18.734;2024-02-14T12:30:49;100143.81;;;8.94;70.32
51759;BME280;66684;47.568;18.734;2024-02-14T12:33:16;100145.91;;;9.01;69.20
51759;BME280;66684;47.568;18.734;2024-02-14T12:35:47;100148.31;;;8.98;69.04
51759;BME280;66684;47.568;18.734;2024-02-14T12:38:15;100144.63;;;8.93;69.06